ADDS METAR Data INFO
IDs: Format: Raw Decoded Include TAF

Data at: 0341 UTC 20 Feb 2018

KSNH 200335Z AUTO 16008G13KT 10SM SCT043 BKN049 BKN060 20/16 A3011 RMK A01
KSNH 200315Z AUTO 16006KT 10SM FEW039 SCT047 BKN060 20/16 A3011 RMK A01
KSNH 200255Z AUTO 16006G11KT 10SM SCT036 SCT043 BKN050 20/16 A3011 RMK A01
KSNH 200235Z AUTO 16006KT 10SM SCT045 BKN050 20/16 A3012 RMK A01
KSNH 200215Z AUTO 17006KT 10SM FEW037 FEW045 BKN050 20/16 A3011 RMK A01
KSNH 200155Z AUTO 15006KT 10SM FEW042 SCT050 BKN055 20/16 A3011 RMK A01
KSNH 200135Z AUTO 16006KT 10SM FEW038 SCT050 BKN055 19/16 A3011 RMK A01
KSNH 200115Z AUTO 15003KT 10SM FEW048 BKN055 18/15 A3011 RMK A01
KSNH 200055Z AUTO 16004KT 10SM FEW044 SCT050 20/15 A3011 RMK A01
KSNH 200035Z AUTO 17006KT 10SM FEW045 SCT050 20/15 A3010 RMK A01
KSNH 200015Z AUTO 17006KT 10SM FEW042 20/15 A3010 RMK A01
KSNH 192355Z AUTO 17006KT 10SM CLR 21/15 A3010 RMK A01
KSNH 192335Z AUTO 17006KT 10SM CLR 21/15 A3009 RMK A01
KSNH 192315Z AUTO 18006KT 10SM CLR 22/16 A3009 RMK A01
KSNH 192255Z AUTO 17006KT 10SM CLR 22/16 A3009 RMK A01
KSNH 192235Z AUTO 17006KT 10SM CLR 22/16 A3009 RMK A01
KSNH 192215Z AUTO 17006G13KT 10SM CLR 22/16 A3008 RMK A01
KSNH 192155Z AUTO 18009G14KT 10SM FEW040 SCT046 SCT055 22/16 A3008 RMK A01
KSNH 192135Z AUTO 17009KT 10SM FEW039 SCT045 22/16 A3008 RMK A01
KSNH 192115Z AUTO 18009KT 10SM CLR 22/16 A3008 RMK A01
KSNH 192055Z AUTO 18009KT 10SM CLR 22/16 A3009 RMK A01
KSNH 192035Z AUTO 17011G18KT 10SM FEW035 SCT044 SCT055 22/16 A3009 RMK A01
KSNH 192015Z AUTO 19012G19KT 10SM SCT034 SCT041 BKN049 23/16 A3009 RMK A01
KSNH 191955Z AUTO 18011G18KT 10SM FEW036 SCT043 BKN060 22/16 A3009 RMK A01
KSNH 191935Z AUTO 18010G18KT 10SM FEW044 SCT050 22/16 A3009 RMK A01
KSNH 191915Z AUTO 16008G16KT 110V200 10SM CLR 21/16 A3010 RMK A01
KSNH 191855Z AUTO 18009G15KT 10SM CLR 21/16 A3011 RMK A01
KSNH 191835Z AUTO 18011G17KT 10SM CLR 20/16 A3012 RMK A01
KSNH 191815Z AUTO 17009G16KT 1/4SM HZ BKN015 20/16 A3013 RMK A01
KSNH 191755Z AUTO 19011G18KT 10SM OVC013 18/16 A3015 RMK A01
KSNH 191735Z AUTO 18010G19KT 10SM OVC011 18/16 A3017 RMK A01
KSNH 191715Z AUTO 19012G21KT 150V210 10SM OVC012 18/16 A3018 RMK A01
KSNH 191655Z AUTO 18011G19KT 140V210 10SM OVC013 18/16 A3018 RMK A01
KSNH 191635Z AUTO 19014KT 10SM OVC013 18/16 A3018 RMK A01
KSNH 191615Z AUTO 18014KT 10SM OVC014 18/16 A3018 RMK A01
KSNH 191555Z AUTO 19011KT 10SM OVC012 18/16 A3018 RMK A01
KSNH 191535Z AUTO 18008G13KT 10SM OVC010 18/16 A3018 RMK A01
KSNH 191515Z AUTO 19009KT 10SM OVC009 17/15 A3018 RMK A01
KSNH 191455Z AUTO 19010KT 10SM OVC009 17/15 A3017 RMK A01
KSNH 191435Z AUTO 18009G14KT 10SM BKN010 BKN013 OVC060 17/15 A3017 RMK A01
KSNH 191415Z AUTO 18008KT 10SM FEW012 SCT060 BKN075 16/15 A3017 RMK A01
KSNH 191355Z AUTO 18009KT 10SM FEW060 BKN070 16/14 A3016 RMK A01
KSNH 191335Z AUTO 17010KT 10SM OVC070 16/14 A3016 RMK A01
KSNH 191315Z AUTO 17008KT 10SM OVC070 15/14 A3016 RMK A01
KSNH 191255Z AUTO 17008KT 10SM BKN070 15/14 A3016 RMK A01
KSNH 191235Z AUTO 16007KT 10SM FEW060 OVC070 15/13 A3015 RMK A01
KSNH 191215Z AUTO 18005KT 10SM FEW055 OVC070 14/13 A3016 RMK A01
KSNH 191155Z AUTO 17006KT 10SM SCT055 OVC070 15/13 A3015 RMK A01
KSNH 191135Z AUTO 17006KT 10SM FEW050 SCT055 OVC070 15/13 A3015 RMK A01
KSNH 191115Z AUTO 18005KT 10SM FEW055 OVC070 15/13 A3015 RMK A01
KSNH 191055Z AUTO 18005KT 10SM OVC065 14/13 A3014 RMK A01
KSNH 191035Z AUTO 18006KT 10SM BKN060 14/13 A3014 RMK A01
KSNH 191015Z AUTO 17005KT 10SM FEW038 SCT048 BKN060 14/13 A3013 RMK A01
KSNH 190955Z AUTO 16005KT 10SM FEW039 BKN055 14/13 A3013 RMK A01
KSNH 190935Z AUTO 17006KT 10SM OVC055 14/13 A3013 RMK A01
KSNH 190915Z AUTO 17005KT 10SM FEW040 BKN060 14/13 A3013 RMK A01
KSNH 190855Z AUTO 17007KT 10SM FEW007 FEW030 SCT040 14/13 A3012 RMK A01
KSNH 190835Z AUTO 16007KT 10SM BKN007 BKN031 BKN046 14/13 A3013 RMK A01
KSNH 190815Z AUTO 18007KT 10SM BKN006 OVC055 14/13 A3013 RMK A01
KSNH 190755Z AUTO 17007KT 10SM OVC006 14/13 A3012 RMK A01
KSNH 190735Z AUTO 17009KT 10SM OVC005 14/13 A3012 RMK A01
KSNH 190715Z AUTO 18008KT 10SM OVC005 14/13 A3012 RMK A01
KSNH 190655Z AUTO 19007G12KT 10SM OVC005 14/13 A3012 RMK A01
KSNH 190635Z AUTO 18008KT 10SM OVC005 14/13 A3012 RMK A01
KSNH 190615Z AUTO 18008KT 10SM OVC005 14/13 A3012 RMK A01
KSNH 190555Z AUTO 19006G12KT 10SM OVC005 14/13 A3013 RMK A01
KSNH 190535Z AUTO 18007G12KT 10SM OVC005 13/13 A3013 RMK A01
KSNH 190515Z AUTO 19006G15KT 10SM OVC005 13/13 A3012 RMK A01
KSNH 190455Z AUTO 19007G13KT 10SM OVC005 13/13 A3012 RMK A01
KSNH 190435Z AUTO 19009KT 10SM OVC005 13/12 A3011 RMK A01
KSNH 190415Z AUTO 18007G13KT 10SM OVC005 13/12 A3011 RMK A01
KSNH 190355Z AUTO 17008G16KT 8SM OVC006 13/12 A3012 RMK A01
KSNH 190335Z AUTO 17012KT 9SM OVC007 13/12 A3012 RMK A01
KSNH 190315Z AUTO 18008G15KT 9SM OVC008 13/12 A3012 RMK A01
KSNH 190255Z AUTO 18011G17KT 10SM OVC009 13/11 A3012 RMK A01
KSNH 190235Z AUTO 18008G13KT 150V210 10SM OVC010 13/11 A3013 RMK A01
KSNH 190215Z AUTO 18011KT 10SM OVC011 13/11 A3013 RMK A01
KSNH 190155Z AUTO 19007KT 10SM OVC013 13/10 A3014 RMK A01
KSNH 190135Z AUTO 18007G12KT 10SM OVC014 13/10 A3013 RMK A01
KSNH 190115Z AUTO 17005G10KT 10SM OVC016 13/10 A3013 RMK A01
KSNH 190055Z AUTO 18007G12KT 10SM OVC016 13/09 A3013 RMK A01
KSNH 190035Z AUTO 17009G18KT 10SM OVC017 14/09 A3013 RMK A01
KSNH 190015Z AUTO 18010KT 10SM OVC017 14/09 A3013 RMK A01
KSNH 182355Z AUTO 17011KT 10SM OVC020 14/08 A3013 RMK A01
KSNH 182335Z AUTO 18009KT 150V210 10SM OVC022 15/08 A3014 RMK A01
KSNH 182315Z AUTO 18006KT 10SM OVC026 15/07 A3013 RMK A01
KSNH 182255Z AUTO 17005KT 10SM OVC027 15/06 A3013 RMK A01
KSNH 182235Z AUTO 16007KT 10SM OVC030 15/06 A3013 RMK A01
KSNH 182215Z AUTO 17004KT 10SM OVC033 15/05 A3013 RMK A01
KSNH 182155Z AUTO 16006KT 10SM BKN035 BKN075 OVC090 16/05 A3013 RMK A01
KSNH 182135Z AUTO 15006KT 10SM BKN075 BKN085 16/04 A3013 RMK A01
KSNH 182115Z AUTO 16005G10KT 10SM BKN080 BKN095 15/04 A3014 RMK A01
KSNH 182055Z AUTO 17009KT 10SM BKN085 16/04 A3013 RMK A01
KSNH 182035Z AUTO 13007G13KT 10SM BKN085 16/02 A3014 RMK A01
KSNH 182015Z AUTO 20009KT 10SM CLR 17/02 A3014 RMK A01
KSNH 181955Z AUTO 13006G11KT 10SM CLR 16/M00 A3015 RMK A01
KSNH 181935Z AUTO 15006KT 10SM CLR 16/00 A3016 RMK A01
KSNH 181915Z AUTO 13006KT 10SM CLR 15/01 A3017 RMK A01
KSNH 181855Z AUTO 13007KT 10SM CLR 14/00 A3018 RMK A01
KSNH 181835Z AUTO 15008KT 10SM CLR 14/01 A3020 RMK A01
KSNH 181815Z AUTO 14006G11KT 10SM CLR 14/02 A3021 RMK A01
KSNH 181755Z AUTO 12007G12KT 10SM CLR 13/01 A3023 RMK A01
KSNH 181735Z AUTO 13010KT 10SM CLR 13/02 A3024 RMK A01
KSNH 181715Z AUTO 12006KT 10SM CLR 12/02 A3026 RMK A01
KSNH 181655Z AUTO 10010KT 10SM CLR 11/02 A3027 RMK A01
KSNH 181635Z AUTO 13007G13KT 10SM CLR 11/02 A3027 RMK A01
KSNH 181615Z AUTO 09007KT 070V130 10SM CLR 10/02 A3028 RMK A01
KSNH 181555Z AUTO 12007KT 10SM CLR 09/04 A3029 RMK A01